Time;durP1;ratioP1;P1;durP2;ratioP2;P2;SDS_P1;SDS_P2;PMS_P1;PMS_P2;Temp;Humidity;BMP_temperature;BMP_pressure;BME280_temperature;BME280_humidity;BME280_pressure;Samples;Min_cycle;Max_cycle;Signal;HPM_P1;HPM_P2
2021/12/21 00:00:55;;;;;;;;;22.33;21.33;;;;;5.79;54.35;101931.25;4978923;28;45508;-65
2021/12/21 00:03:33;;;;;;;;;20.00;19.67;;;;;6.09;55.11;101985.97;4993438;28;46041;-66
2021/12/21 00:06:04;;;;;;;;;25.67;22.67;;;;;6.13;55.27;101974.31;4978495;28;45560;-65
2021/12/21 00:08:30;;;;;;;;;20.50;19.00;;;;;6.18;54.81;101996.00;4978718;28;45546;-64
2021/12/21 00:10:58;;;;;;;;;21.33;18.33;;;;;6.32;55.27;102004.03;4978508;28;45449;-65
2021/12/21 00:13:37;;;;;;;;;21.33;20.00;;;;;6.24;54.31;101987.78;4978193;28;46454;-64
2021/12/21 00:18:43;;;;;;;;;18.67;18.67;;;;;6.03;54.75;101944.94;4986650;28;45291;-65
2021/12/21 00:21:20;;;;;;;;;21.33;18.33;;;;;6.31;54.54;101993.56;4998230;28;45436;-65
2021/12/21 00:23:49;;;;;;;;;19.67;18.33;;;;;6.33;54.20;101984.59;4997756;28;45633;-65
2021/12/21 00:26:21;;;;;;;;;18.00;17.00;;;;;5.76;54.83;101904.19;4997832;28;45428;-65
2021/12/21 00:31:14;;;;;;;;;19.00;16.67;;;;;6.06;54.92;101972.94;4996786;28;45408;-65
2021/12/21 00:33:41;;;;;;;;;23.00;21.67;;;;;6.22;54.62;101994.94;4996348;28;46521;-65
2021/12/21 00:36:09;;;;;;;;;21.00;17.00;;;;;6.18;55.30;101990.72;4997758;28;45388;-66
2021/12/21 00:38:37;;;;;;;;;25.00;20.00;;;;;6.09;54.72;101964.84;4997746;28;45451;-66
2021/12/21 00:41:03;;;;;;;;;23.67;17.00;;;;;6.24;55.02;101982.50;4997823;28;45615;-64
2021/12/21 00:43:32;;;;;;;;;16.67;15.33;;;;;5.83;54.75;101916.13;4997416;28;46875;-66
2021/12/21 00:45:57;;;;;;;;;17.67;17.00;;;;;6.23;54.31;101983.44;4997260;28;45340;-66
2021/12/21 00:48:28;;;;;;;;;17.33;15.67;;;;;6.03;54.44;101949.38;4988306;28;45495;-66
2021/12/21 00:50:58;;;;;;;;;17.67;17.33;;;;;6.22;54.80;101987.00;4977992;28;45379;-65
2021/12/21 00:53:27;;;;;;;;;21.33;17.00;;;;;6.06;54.63;101971.16;4977661;28;45554;-66
2021/12/21 00:55:53;;;;;;;;;15.67;15.67;;;;;5.78;54.44;101924.25;4977729;28;45366;-64
2021/12/21 00:58:19;;;;;;;;;20.00;16.67;;;;;6.07;54.36;101969.38;4977748;28;45482;-66
2021/12/21 01:00:45;;;;;;;;;12.67;10.67;;;;;6.03;54.95;101978.41;4977996;28;45413;-65
2021/12/21 01:03:12;;;;;;;;;12.67;11.67;;;;;6.00;55.34;101966.19;4977767;28;46003;-65
2021/12/21 01:06:06;;;;;;;;;18.33;17.33;;;;;6.04;55.04;101978.31;4976369;28;45543;-64
2021/12/21 01:08:31;;;;;;;;;20.33;14.33;;;;;6.05;54.79;101965.97;4977570;28;45376;-65
2021/12/21 01:13:42;;;;;;;;;21.67;16.00;;;;;6.02;54.87;101958.22;4976474;28;46422;-64
2021/12/21 01:18:56;;;;;;;;;17.33;14.67;;;;;5.95;54.93;101941.84;4977857;28;45420;-66
2021/12/21 01:21:26;;;;;;;;;16.00;16.00;;;;;6.08;54.71;101960.50;4977773;28;45493;-65
2021/12/21 01:26:59;;;;;;;;;18.67;14.00;;;;;5.83;54.83;101933.75;4977380;28;45340;-65
2021/12/21 01:31:55;;;;;;;;;16.33;12.00;;;;;5.95;54.83;101941.84;4977423;28;45317;-65
2021/12/21 01:37:05;;;;;;;;;14.67;14.00;;;;;5.98;55.15;101938.19;4977134;28;45348;-66
2021/12/21 01:39:54;;;;;;;;;17.00;15.00;;;;;6.03;54.74;101962.56;4977303;28;45392;-65
2021/12/21 01:42:31;;;;;;;;;14.00;9.00;;;;;6.04;54.34;101966.91;4977406;28;45592;-65
2021/12/21 01:50:25;;;;;;;;;12.67;12.00;;;;;5.95;54.71;101964.75;4977125;28;45277;-64
2021/12/21 01:52:50;;;;;;;;;16.00;15.67;;;;;5.94;55.07;101955.13;4977110;28;45248;-64
2021/12/21 01:55:16;;;;;;;;;17.67;12.67;;;;;5.93;54.27;101948.16;4977151;28;46505;-65
2021/12/21 01:57:41;;;;;;;;;16.00;16.00;;;;;6.02;54.35;101953.78;4976715;28;45265;-66
2021/12/21 02:00:09;;;;;;;;;18.00;15.33;;;;;5.97;54.44;101973.44;4977140;28;45211;-65
2021/12/21 02:02:35;;;;;;;;;18.33;16.00;;;;;5.59;54.19;101906.88;4977265;28;45420;-65
2021/12/21 02:05:00;;;;;;;;;19.33;15.33;;;;;5.76;53.89;101931.41;4991779;28;46727;-65
2021/12/21 02:07:26;;;;;;;;;18.67;16.67;;;;;5.91;54.48;101945.59;4976829;28;45239;-65
2021/12/21 02:09:51;;;;;;;;;17.33;17.00;;;;;5.80;55.03;101932.94;4976987;28;45556;-65
2021/12/21 02:12:19;;;;;;;;;15.33;13.33;;;;;5.92;54.63;101949.09;4977060;28;45507;-64
2021/12/21 02:14:54;;;;;;;;;15.00;13.00;;;;;5.76;54.73;101925.28;4976593;28;45976;-64
2021/12/21 02:22:47;;;;;;;;;12.33;12.33;;;;;5.81;54.56;101918.00;4977253;28;45404;-66
2021/12/21 02:25:52;;;;;;;;;18.67;15.00;;;;;5.94;54.49;101940.16;4978805;28;46995;-64
2021/12/21 02:30:49;;;;;;;;;17.33;16.00;;;;;5.96;54.40;101934.78;4984527;28;45517;-65
2021/12/21 02:33:16;;;;;;;;;18.00;15.00;;;;;5.90;55.55;101928.06;4999829;28;45519;-65
2021/12/21 02:35:42;;;;;;;;;15.00;15.00;;;;;5.94;54.54;101937.50;4999590;28;46593;-65
2021/12/21 02:38:08;;;;;;;;;17.67;17.33;;;;;5.92;54.80;101930.63;4999390;28;45353;-66
2021/12/21 02:40:34;;;;;;;;;15.00;14.33;;;;;5.88;55.56;101913.22;4999654;28;45495;-64
2021/12/21 02:43:00;;;;;;;;;18.00;15.67;;;;;5.86;55.38;101909.81;4999700;28;45197;-64
2021/12/21 02:45:26;;;;;;;;;8.33;7.00;;;;;5.79;55.67;101899.59;4999292;28;47521;-66
2021/12/21 02:47:51;;;;;;;;;16.67;13.67;;;;;5.93;55.38;101914.69;4996626;28;45535;-67
2021/12/21 02:50:17;;;;;;;;;15.33;15.00;;;;;5.92;54.75;101920.91;4979920;28;45237;-66
2021/12/21 02:52:42;;;;;;;;;17.33;14.33;;;;;5.93;54.89;101912.06;4995082;28;45674;-66
2021/12/21 02:55:08;;;;;;;;;15.00;14.67;;;;;5.95;54.78;101911.97;4979621;28;47632;-65
2021/12/21 02:57:34;;;;;;;;;16.33;12.33;;;;;5.76;54.63;101883.91;4979616;28;45420;-64
2021/12/21 03:00:01;;;;;;;;;15.33;11.67;;;;;5.74;54.72;101895.50;4979763;28;45497;-65
2021/12/21 03:02:27;;;;;;;;;19.00;17.67;;;;;5.69;54.95;101887.84;4979836;28;45480;-66
2021/12/21 03:04:52;;;;;;;;;14.33;14.00;;;;;5.61;55.06;101879.50;4979319;28;46083;-65
2021/12/21 03:10:09;;;;;;;;;16.00;12.00;;;;;5.31;55.51;101865.34;4990286;28;45682;-65
2021/12/21 03:15:28;;;;;;;;;16.33;16.33;;;;;5.53;55.80;101907.22;4996526;28;46360;-64
2021/12/21 03:17:55;;;;;;;;;18.67;15.33;;;;;5.55;56.43;101903.56;4995241;28;45445;-65
2021/12/21 03:20:21;;;;;;;;;16.00;15.00;;;;;5.44;55.92;101887.50;4979371;28;45376;-66
2021/12/21 03:22:47;;;;;;;;;23.33;20.33;;;;;5.46;56.93;101894.38;4979218;28;45436;-65
2021/12/21 03:25:13;;;;;;;;;19.33;16.67;;;;;5.48;56.44;101908.34;4978940;28;46466;-66
2021/12/21 03:27:38;;;;;;;;;15.00;10.00;;;;;5.38;56.87;101899.19;4978982;28;46615;-65
2021/12/21 03:30:07;;;;;;;;;18.00;15.33;;;;;5.42;57.80;101900.75;4979465;28;45276;-65
2021/12/21 03:32:33;;;;;;;;;15.67;15.67;;;;;5.40;56.78;101913.16;4979310;28;45499;-65
2021/12/21 03:34:58;;;;;;;;;20.00;16.33;;;;;5.40;57.75;101899.97;4993967;28;47008;-66
2021/12/21 03:37:24;;;;;;;;;23.00;19.00;;;;;5.02;57.82;101849.31;4978318;28;45487;-65
2021/12/21 03:39:52;;;;;;;;;18.00;14.00;;;;;5.28;57.86;101891.88;4979122;28;45424;-66
2021/12/21 03:42:17;;;;;;;;;14.00;11.00;;;;;5.26;57.64;101893.75;4977828;28;45329;-65
2021/12/21 03:44:43;;;;;;;;;17.00;14.00;;;;;5.24;57.59;101885.94;4977529;28;46954;-65
2021/12/21 03:47:10;;;;;;;;;19.67;15.33;;;;;5.31;57.69;101892.56;4978509;28;45475;-65
2021/12/21 03:52:18;;;;;;;;;18.00;17.33;;;;;5.25;58.31;101903.44;4979067;28;45386;-64
2021/12/21 03:54:48;;;;;;;;;16.00;15.67;;;;;5.26;58.17;101899.88;4978413;28;46737;-64
2021/12/21 03:57:15;;;;;;;;;13.67;13.67;;;;;5.32;58.59;101906.59;4978559;28;45489;-65
2021/12/21 03:59:42;;;;;;;;;22.00;18.33;;;;;5.14;58.17;101880.28;4978771;28;45384;-65
2021/12/21 04:02:11;;;;;;;;;13.67;13.67;;;;;5.26;58.05;101906.94;4978738;28;45523;-64
2021/12/21 04:04:37;;;;;;;;;14.67;11.00;;;;;5.27;58.42;101904.22;4993491;28;48182;-64
2021/12/21 04:07:02;;;;;;;;;15.00;14.00;;;;;5.26;57.86;101899.88;4978734;28;45269;-64
2021/12/21 04:09:28;;;;;;;;;17.33;14.67;;;;;5.29;58.26;101901.50;4978739;28;45288;-64
2021/12/21 04:11:53;;;;;;;;;20.00;19.67;;;;;5.16;58.38;101885.47;4993798;28;45571;-65
2021/12/21 04:14:19;;;;;;;;;19.00;14.67;;;;;5.18;58.60;101889.72;4978513;28;45551;-65
2021/12/21 04:16:45;;;;;;;;;15.33;14.00;;;;;5.19;58.28;101885.28;4977230;28;46558;-64
2021/12/21 04:19:12;;;;;;;;;19.00;17.33;;;;;5.22;58.52;101898.34;4978593;28;45436;-65
2021/12/21 04:21:38;;;;;;;;;17.67;14.00;;;;;5.24;58.93;101892.97;4978671;28;45556;-65
2021/12/21 04:24:03;;;;;;;;;20.00;15.33;;;;;5.15;58.86;101887.25;4993158;28;47452;-64
2021/12/21 04:26:29;;;;;;;;;16.33;14.67;;;;;4.80;58.90;101819.72;4978309;28;45412;-66
2021/12/21 04:28:54;;;;;;;;;17.33;14.67;;;;;5.05;58.84;101864.09;4978550;28;45239;-64
2021/12/21 04:31:19;;;;;;;;;18.33;15.00;;;;;5.14;58.44;101867.09;4978470;28;45478;-65
2021/12/21 04:33:45;;;;;;;;;14.33;14.33;;;;;5.28;58.64;101886.59;4978335;28;46669;-64
2021/12/21 04:36:12;;;;;;;;;16.33;16.33;;;;;5.28;58.72;101886.59;4997538;28;45166;-64
2021/12/21 04:38:41;;;;;;;;;15.67;14.33;;;;;5.16;58.59;101872.28;4996517;28;45460;-65
2021/12/21 04:41:14;;;;;;;;;17.00;17.00;;;;;5.09;58.70;101865.66;4997895;28;45511;-64
2021/12/21 04:43:41;;;;;;;;;13.33;12.33;;;;;4.94;58.92;101846.22;4997277;28;47643;-65
2021/12/21 04:46:07;;;;;;;;;13.67;12.67;;;;;5.24;58.60;101890.34;4997308;28;45263;-65
2021/12/21 04:48:33;;;;;;;;;16.00;14.33;;;;;5.08;58.16;101869.22;4986553;28;45490;-65
2021/12/21 04:50:59;;;;;;;;;23.33;17.33;;;;;5.14;59.14;101879.41;4978278;28;45304;-64
2021/12/21 04:53:25;;;;;;;;;15.33;11.33;;;;;4.97;58.53;101872.41;4977862;28;46957;-65
2021/12/21 04:55:51;;;;;;;;;11.33;10.00;;;;;4.99;58.88;101874.94;4977687;28;45297;-66
2021/12/21 04:58:16;;;;;;;;;16.00;15.00;;;;;4.88;59.08;101857.09;4977940;28;45218;-65
2021/12/21 05:00:42;;;;;;;;;14.33;13.33;;;;;4.99;59.80;101885.50;4992901;28;45229;-65
2021/12/21 05:03:09;;;;;;;;;18.33;14.00;;;;;4.94;59.77;101875.19;4977339;28;46106;-64
2021/12/21 05:05:35;;;;;;;;;21.67;19.67;;;;;4.50;59.42;101796.69;4977504;28;45351;-64
2021/12/21 05:10:55;;;;;;;;;17.33;16.00;;;;;4.97;58.74;101882.94;4977878;28;45361;-64
2021/12/21 05:13:23;;;;;;;;;22.33;17.67;;;;;4.98;59.23;101892.56;4976963;28;46816;-65
2021/12/21 05:15:49;;;;;;;;;15.00;14.33;;;;;4.94;59.23;101892.78;4977564;28;45320;-65
2021/12/21 05:18:15;;;;;;;;;16.33;16.00;;;;;4.82;60.70;101899.56;4984171;28;45250;-66
2021/12/21 05:20:42;;;;;;;;;15.00;14.33;;;;;4.74;60.17;101891.19;4997072;28;45413;-65
2021/12/21 05:23:09;;;;;;;;;14.67;14.00;;;;;4.79;59.94;101897.91;4996682;28;45455;-64
2021/12/21 05:25:35;;;;;;;;;14.00;13.33;;;;;4.62;60.32;101865.50;4997116;28;45344;-64
2021/12/21 05:28:01;;;;;;;;;16.33;14.33;;;;;4.82;59.87;101895.16;4997131;28;45355;-65
2021/12/21 05:30:27;;;;;;;;;16.00;14.00;;;;;4.67;60.69;101874.00;4995701;28;45477;-64
2021/12/21 05:32:55;;;;;;;;;16.33;14.67;;;;;4.82;60.24;101899.56;4995064;28;46491;-65
2021/12/21 05:35:22;;;;;;;;;18.00;14.33;;;;;4.76;60.49;101889.31;4995511;28;45489;-66
2021/12/21 05:37:49;;;;;;;;;17.00;15.00;;;;;4.64;59.76;101875.00;4996568;28;45487;-64
2021/12/21 05:40:17;;;;;;;;;13.67;12.33;;;;;4.61;60.33;101874.31;4995374;28;45417;-65
2021/12/21 05:42:44;;;;;;;;;18.67;15.00;;;;;4.75;60.00;101899.00;4996650;28;45794;-65
2021/12/21 05:45:14;;;;;;;;;15.00;11.67;;;;;4.72;60.19;101898.31;4996554;28;45274;-64
2021/12/21 05:47:40;;;;;;;;;11.33;11.00;;;;;4.63;59.73;101889.13;4994592;28;45519;-66
2021/12/21 05:50:10;;;;;;;;;15.67;14.67;;;;;4.56;60.21;101888.56;4977291;28;45404;-65
2021/12/21 05:52:36;;;;;;;;;13.33;11.67;;;;;4.52;60.03;101894.91;4976699;28;47474;-66
2021/12/21 05:55:03;;;;;;;;;16.00;13.00;;;;;4.51;60.61;101893.22;4977192;28;45241;-64
2021/12/21 05:57:28;;;;;;;;;13.00;10.33;;;;;4.38;61.77;101886.00;4977142;28;45491;-65
2021/12/21 05:59:54;;;;;;;;;11.00;10.67;;;;;4.42;60.29;101891.06;4978868;28;45327;-65
2021/12/21 06:02:19;;;;;;;;;16.00;15.67;;;;;4.41;60.75;101891.97;4980183;28;45408;-65
2021/12/21 06:04:45;;;;;;;;;13.00;13.00;;;;;4.29;60.30;101876.78;4978953;28;46322;-63
2021/12/21 06:07:10;;;;;;;;;14.00;12.67;;;;;4.46;60.78;101903.13;4980305;28;45420;-65
2021/12/21 06:09:36;;;;;;;;;18.00;14.00;;;;;4.44;60.15;101897.09;4980720;28;45316;-63
2021/12/21 06:12:11;;;;;;;;;14.00;10.33;;;;;4.42;60.61;101901.59;4980001;28;45378;-65
2021/12/21 06:15:25;;;;;;;;;14.67;12.00;;;;;4.39;61.07;101908.75;4979945;28;45479;-64
2021/12/21 06:23:10;;;;;;;;;14.67;13.33;;;;;4.37;60.04;101903.56;4979752;28;45775;-65
2021/12/21 06:25:41;;;;;;;;;13.33;13.33;;;;;3.48;61.24;101782.53;4982404;28;45463;-65
2021/12/21 06:28:11;;;;;;;;;11.67;11.67;;;;;4.22;60.93;101909.59;4999355;28;45238;-65
2021/12/21 06:30:38;;;;;;;;;14.00;12.00;;;;;4.17;61.20;101908.94;4998271;28;45454;-65
2021/12/21 06:33:06;;;;;;;;;18.67;14.33;;;;;4.16;60.63;101904.63;4999390;28;47694;-64
2021/12/21 06:35:32;;;;;;;;;18.00;13.67;;;;;3.66;61.27;101829.84;5000094;28;45251;-65
2021/12/21 06:37:57;;;;;;;;;11.33;9.67;;;;;4.15;62.04;101898.50;4999527;28;45897;-64
2021/12/21 06:40:24;;;;;;;;;8.67;8.67;;;;;4.21;61.41;101908.75;4999555;28;45499;-64
2021/12/21 06:42:51;;;;;;;;;12.67;11.00;;;;;4.05;61.57;101870.09;4997940;28;47961;-67
2021/12/21 06:45:30;;;;;;;;;15.00;11.33;;;;;4.11;61.48;101890.84;4998957;28;45367;-65
2021/12/21 06:53:25;;;;;;;;;12.00;11.00;;;;;4.22;60.68;101897.28;4998996;28;45321;-65
2021/12/21 06:55:51;;;;;;;;;13.00;12.00;;;;;4.22;60.80;101899.94;4999138;28;45289;-66
2021/12/21 06:58:16;;;;;;;;;12.67;12.33;;;;;3.91;61.32;101847.94;4997908;28;45388;-65
2021/12/21 07:00:43;;;;;;;;;12.00;12.00;;;;;4.06;61.24;101875.28;4997657;28;45504;-65
2021/12/21 07:03:08;;;;;;;;;19.00;12.67;;;;;4.03;61.79;101887.75;4999092;28;46543;-67
2021/12/21 07:05:34;;;;;;;;;17.33;11.00;;;;;4.14;60.95;101894.16;4988415;28;45334;-65
2021/12/21 07:08:00;;;;;;;;;12.00;8.00;;;;;4.13;60.79;101900.38;4978050;28;45372;-65
2021/12/21 07:10:28;;;;;;;;;13.33;11.67;;;;;3.93;61.34;101861.84;4977631;28;45550;-65
2021/12/21 07:18:29;;;;;;;;;13.33;12.33;;;;;3.97;60.88;101897.59;4979040;28;45337;-63
2021/12/21 07:20:55;;;;;;;;;15.33;15.33;;;;;3.67;61.86;101844.69;4979394;28;45443;-66
2021/12/21 07:23:21;;;;;;;;;15.00;12.00;;;;;3.97;61.85;101905.50;4978757;28;45667;-64
2021/12/21 07:25:47;;;;;;;;;13.00;13.00;;;;;3.77;61.61;101866.13;4978613;28;45531;-68
2021/12/21 07:28:13;;;;;;;;;18.00;13.00;;;;;3.84;61.59;101872.84;4978938;28;45360;-65
2021/12/21 07:30:38;;;;;;;;;13.00;12.00;;;;;3.98;61.26;101901.94;4994089;28;45441;-66
2021/12/21 07:33:04;;;;;;;;;12.00;12.00;;;;;3.92;61.72;101902.25;4977271;28;47456;-64
2021/12/21 07:35:29;;;;;;;;;17.00;14.00;;;;;3.98;61.41;101915.09;4978971;28;45520;-65
2021/12/21 07:37:54;;;;;;;;;12.00;9.67;;;;;3.88;61.40;101908.59;4979053;28;45344;-64
2021/12/21 07:40:20;;;;;;;;;12.33;12.00;;;;;3.98;61.99;101915.09;4977661;28;45214;-66
2021/12/21 07:42:45;;;;;;;;;11.33;10.33;;;;;4.01;61.59;101915.91;4978261;28;45908;-64
2021/12/21 07:45:11;;;;;;;;;21.33;14.00;;;;;3.99;61.04;101908.06;4978543;28;45231;-65
2021/12/21 07:47:37;;;;;;;;;13.33;13.00;;;;;3.84;60.82;101885.97;4978767;28;45652;-65
2021/12/21 07:50:03;;;;;;;;;16.00;13.00;;;;;3.23;60.93;101799.47;4979022;28;45325;-66
2021/12/21 07:52:28;;;;;;;;;13.67;9.67;;;;;3.67;61.60;101896.44;4978254;28;46539;-66
2021/12/21 07:54:54;;;;;;;;;13.33;10.67;;;;;3.66;61.93;101900.84;4978411;28;45507;-65
2021/12/21 07:57:19;;;;;;;;;14.00;12.33;;;;;3.03;61.21;101779.38;4978671;28;45465;-66
2021/12/21 07:59:45;;;;;;;;;13.67;12.00;;;;;3.45;61.87;101869.44;4978718;28;45440;-65
2021/12/21 08:02:12;;;;;;;;;15.33;14.00;;;;;3.60;61.73;101884.47;4978042;28;45921;-67
2021/12/21 08:04:38;;;;;;;;;17.00;13.00;;;;;3.71;61.65;101887.47;4981424;28;45499;-65
2021/12/21 08:07:07;;;;;;;;;19.00;15.00;;;;;3.72;62.20;101899.72;4997662;28;45387;-65
2021/12/21 08:09:38;;;;;;;;;19.00;18.00;;;;;3.88;61.38;101916.47;4996843;28;45549;-64
2021/12/21 08:12:13;;;;;;;;;19.67;15.33;;;;;3.87;60.96;101909.50;4997740;28;45927;-65
2021/12/21 08:14:40;;;;;;;;;18.67;14.00;;;;;3.82;61.18;101910.66;4997865;28;45204;-65
2021/12/21 08:17:06;;;;;;;;;20.67;18.33;;;;;3.77;61.86;101918.75;4997868;28;45518;-65
2021/12/21 08:19:31;;;;;;;;;13.33;12.33;;;;;3.65;61.44;101908.81;4998081;28;45459;-64
2021/12/21 08:21:57;;;;;;;;;15.00;15.00;;;;;3.73;61.21;101926.84;4995942;28;47304;-65
2021/12/21 08:24:22;;;;;;;;;15.00;14.00;;;;;3.68;61.42;101913.94;4997983;28;45427;-65
2021/12/21 08:26:48;;;;;;;;;17.67;13.00;;;;;3.80;61.70;101923.84;5013010;28;45258;-66
2021/12/21 08:29:13;;;;;;;;;24.67;23.33;;;;;3.24;61.32;101834.50;4997897;28;45487;-66
2021/12/21 08:31:39;;;;;;;;;12.33;8.33;;;;;3.72;61.69;101914.63;4997085;28;45534;-66
2021/12/21 08:34:04;;;;;;;;;19.67;13.67;;;;;3.52;61.81;101873.47;4997653;28;45313;-65
2021/12/21 08:36:31;;;;;;;;;15.33;13.67;;;;;3.84;61.25;101924.59;4979165;28;46464;-66
2021/12/21 08:38:56;;;;;;;;;16.00;13.67;;;;;3.79;61.56;101919.53;4978250;28;45428;-65
2021/12/21 08:41:23;;;;;;;;;20.00;15.67;;;;;3.74;61.06;101929.41;4976064;28;47365;-65
2021/12/21 08:43:50;;;;;;;;;20.00;16.00;;;;;3.82;61.27;101915.94;4977512;28;45692;-65
2021/12/21 08:46:15;;;;;;;;;11.00;9.67;;;;;3.91;60.64;101921.59;4977704;28;45323;-66
2021/12/21 08:48:40;;;;;;;;;26.00;16.00;;;;;3.94;61.06;101910.91;4978004;28;45465;-65
2021/12/21 08:51:06;;;;;;;;;15.33;15.33;;;;;3.98;60.59;101912.47;4977374;28;46820;-66
2021/12/21 08:53:32;;;;;;;;;22.33;17.00;;;;;3.67;59.41;101843.84;4977417;28;45199;-65
2021/12/21 08:55:58;;;;;;;;;19.67;15.67;;;;;4.23;59.65;101916.56;4977521;28;45569;-65
2021/12/21 08:58:24;;;;;;;;;17.33;15.33;;;;;4.26;59.82;101896.22;4977617;28;45512;-64
2021/12/21 09:00:50;;;;;;;;;22.67;19.33;;;;;4.46;59.07;101907.53;4977379;28;45640;-65
2021/12/21 09:03:16;;;;;;;;;17.00;16.67;;;;;4.58;58.88;101920.94;4977351;28;45413;-66
2021/12/21 09:05:41;;;;;;;;;15.33;14.00;;;;;4.54;58.70;101897.47;4977306;28;45472;-66
2021/12/21 09:08:10;;;;;;;;;19.33;16.33;;;;;4.36;58.35;101849.22;4977249;28;45360;-65
2021/12/21 09:10:36;;;;;;;;;18.67;18.00;;;;;4.81;57.21;101918.94;4975565;28;47197;-66
2021/12/21 09:13:02;;;;;;;;;15.00;14.00;;;;;4.83;58.30;101917.09;4977259;28;45828;-66
2021/12/21 09:15:29;;;;;;;;;12.33;12.33;;;;;4.77;57.45;101917.38;4977301;28;45226;-66
2021/12/21 09:17:55;;;;;;;;;20.33;19.33;;;;;4.73;57.52;101895.59;4976105;28;45540;-66
2021/12/21 09:20:24;;;;;;;;;16.33;14.67;;;;;4.91;57.29;101919.31;4976783;28;46444;-65
2021/12/21 09:22:50;;;;;;;;;18.00;16.33;;;;;4.96;57.19;101936.59;4976772;28;45507;-65
2021/12/21 09:25:17;;;;;;;;;18.00;15.67;;;;;4.99;57.52;101944.31;4977057;28;45299;-65
2021/12/21 09:27:43;;;;;;;;;17.00;15.00;;;;;4.92;57.84;101923.66;4975813;28;45627;-66
2021/12/21 09:30:11;;;;;;;;;17.33;14.67;;;;;5.12;57.07;101934.88;4976686;28;46728;-65
2021/12/21 09:32:37;;;;;;;;;20.67;19.00;;;;;4.97;56.56;101943.56;4991651;28;45415;-65
2021/12/21 09:35:04;;;;;;;;;21.67;21.00;;;;;4.45;57.98;101879.50;4990615;28;45271;-64
2021/12/21 09:37:31;;;;;;;;;21.67;17.33;;;;;4.46;57.99;101876.78;4976959;28;45440;-66
2021/12/21 09:39:57;;;;;;;;;21.67;19.67;;;;;4.69;57.64;101940.63;4976537;28;45690;-65
2021/12/21 09:42:28;;;;;;;;;27.33;22.00;;;;;4.46;58.49;101937.34;4976587;28;45431;-65
2021/12/21 09:44:54;;;;;;;;;18.67;18.67;;;;;4.45;59.26;101940.91;4976854;28;45302;-66
2021/12/21 09:47:20;;;;;;;;;23.33;20.00;;;;;4.46;58.42;101944.41;4976390;28;45478;-65
2021/12/21 09:49:47;;;;;;;;;17.00;17.00;;;;;4.50;58.59;101951.22;4976295;28;46381;-67
2021/12/21 09:52:22;;;;;;;;;27.67;21.00;;;;;4.29;59.01;101924.16;4976320;28;45247;-65
2021/12/21 09:54:48;;;;;;;;;26.00;20.00;;;;;4.45;59.28;101943.56;4976754;28;45467;-66
2021/12/21 09:57:17;;;;;;;;;20.67;19.33;;;;;4.51;58.52;101948.50;4976973;28;45551;-66
2021/12/21 09:59:44;;;;;;;;;20.33;18.00;;;;;4.50;59.23;101957.34;4976712;28;46281;-65
2021/12/21 10:02:09;;;;;;;;;19.00;18.00;;;;;4.55;58.98;101944.78;4976568;28;45381;-65
2021/12/21 10:04:45;;;;;;;;;20.33;18.00;;;;;4.48;58.82;101911.81;4976875;28;45587;-70
2021/12/21 10:07:12;;;;;;;;;26.00;20.33;;;;;4.65;58.98;101950.47;4991752;28;45459;-67
2021/12/21 10:09:43;;;;;;;;;20.67;18.67;;;;;4.67;58.53;101953.03;4976027;28;45988;-64
2021/12/21 10:12:09;;;;;;;;;24.00;22.67;;;;;4.71;58.97;101930.88;4976127;28;45428;-64
2021/12/21 10:14:35;;;;;;;;;24.00;24.00;;;;;4.81;58.18;101945.28;4976260;28;45326;-65
2021/12/21 10:17:10;;;;;;;;;9.00;8.00;;;;;4.85;58.29;101946.84;4976427;28;45391;-66
2021/12/21 10:19:37;;;;;;;;;20.33;18.33;;;;;4.78;57.98;101950.69;4976103;28;45798;-64
2021/12/21 10:22:13;;;;;;;;;12.67;10.33;;;;;4.79;58.34;101950.59;4976247;28;45263;-66
2021/12/21 10:24:48;;;;;;;;;26.00;21.67;;;;;4.81;59.01;101966.38;4976395;28;45336;-66
2021/12/21 10:27:15;;;;;;;;;21.00;15.67;;;;;4.83;58.08;101959.25;4976547;28;45533;-68
2021/12/21 10:29:46;;;;;;;;;22.00;20.67;;;;;4.82;58.09;101957.53;4990950;28;46786;-65
2021/12/21 10:32:42;;;;;;;;;12.00;9.33;;;;;4.61;59.12;101924.38;4975867;28;45278;-66
2021/12/21 10:35:10;;;;;;;;;27.00;19.33;;;;;4.72;58.99;101932.56;4972938;28;45491;-65
2021/12/21 10:37:38;;;;;;;;;25.67;21.33;;;;;4.85;58.51;101941.56;4976087;28;45550;-65
2021/12/21 10:40:12;;;;;;;;;26.00;23.00;;;;;4.84;57.68;101945.13;4974657;28;45800;-65
2021/12/21 10:42:56;;;;;;;;;25.00;23.33;;;;;4.78;59.19;101948.06;4974392;28;45318;-66
2021/12/21 10:45:39;;;;;;;;;29.00;25.00;;;;;4.77;58.79;101949.84;4975384;28;45380;-69
2021/12/21 10:48:11;;;;;;;;;26.00;23.33;;;;;4.72;58.67;101925.50;4979460;28;45462;-66
2021/12/21 10:50:38;;;;;;;;;21.67;20.67;;;;;4.68;58.97;101917.84;4994122;28;46845;-65
2021/12/21 10:53:04;;;;;;;;;24.33;20.33;;;;;4.73;59.02;101937.75;4979042;28;45539;-66
2021/12/21 10:55:36;;;;;;;;;26.00;23.67;;;;;4.77;58.72;101941.09;4979198;28;45490;-66
2021/12/21 10:58:16;;;;;;;;;28.33;25.00;;;;;4.75;58.88;101929.78;4979493;28;45487;-65
2021/12/21 11:00:55;;;;;;;;;25.67;21.33;;;;;4.65;58.51;101918.00;4978812;28;45780;-64
2021/12/21 11:03:55;;;;;;;;;28.67;25.33;;;;;4.62;58.95;101912.91;4978568;28;45450;-65
2021/12/21 11:06:35;;;;;;;;;22.33;21.00;;;;;4.84;59.53;101934.59;4979445;28;45440;-66
2021/12/21 11:09:04;;;;;;;;;26.33;23.00;;;;;4.86;58.32;101932.72;4979542;28;45233;-65
2021/12/21 11:11:32;;;;;;;;;26.00;23.00;;;;;4.91;58.53;101932.47;4978599;28;45749;-66
2021/12/21 11:14:17;;;;;;;;;21.00;20.00;;;;;4.84;58.61;101921.41;4978838;28;45462;-65
2021/12/21 11:16:45;;;;;;;;;23.00;20.00;;;;;4.88;58.61;101930.88;4978818;28;45409;-65
2021/12/21 11:19:15;;;;;;;;;22.33;21.33;;;;;4.77;58.66;101912.09;4978959;28;45484;-66
2021/12/21 11:21:42;;;;;;;;;21.67;19.00;;;;;4.94;59.28;101934.97;4978230;28;45779;-65
2021/12/21 11:24:11;;;;;;;;;28.67;26.33;;;;;4.91;58.63;101925.44;4978703;28;45375;-65
2021/12/21 11:26:39;;;;;;;;;25.00;23.67;;;;;4.84;59.44;101926.69;4994555;28;45215;-67
2021/12/21 11:29:10;;;;;;;;;24.67;22.33;;;;;4.88;59.48;101915.91;4998414;28;45462;-66
2021/12/21 11:31:39;;;;;;;;;26.67;25.00;;;;;4.93;58.91;101917.44;4996433;28;47425;-65
2021/12/21 11:34:08;;;;;;;;;30.33;26.33;;;;;5.02;58.09;101912.56;4997735;28;45414;-65
2021/12/21 11:39:22;;;;;;;;;25.00;23.67;;;;;4.94;59.05;101914.72;4997075;28;45254;-65
2021/12/21 11:41:49;;;;;;;;;21.00;21.00;;;;;4.97;58.60;101905.81;4996431;28;47025;-66
2021/12/21 11:44:40;;;;;;;;;31.33;26.67;;;;;4.99;58.27;101910.06;4998016;28;45399;-65
2021/12/21 11:47:11;;;;;;;;;28.67;25.00;;;;;5.05;58.79;101895.75;4998013;28;45283;-67
2021/12/21 11:49:51;;;;;;;;;27.67;26.00;;;;;5.03;58.85;101881.78;4997752;28;45495;-66
2021/12/21 11:52:22;;;;;;;;;22.67;22.33;;;;;5.09;59.30;101903.41;4997693;28;45446;-66
2021/12/21 11:54:48;;;;;;;;;33.00;27.33;;;;;5.12;58.73;101900.59;4994363;28;45904;-65
2021/12/21 11:57:14;;;;;;;;;34.00;32.00;;;;;4.72;58.61;101828.03;4977358;28;45381;-65
2021/12/21 11:59:40;;;;;;;;;34.67;27.33;;;;;4.95;59.41;101892.72;4978828;28;45313;-67
2021/12/21 12:02:07;;;;;;;;;31.33;30.67;;;;;4.80;59.34;101890.88;4977973;28;46003;-65
2021/12/21 12:04:35;;;;;;;;;34.00;30.00;;;;;4.37;60.14;101829.00;4978168;28;45547;-66
2021/12/21 12:07:15;;;;;;;;;29.33;19.33;;;;;4.80;59.92;101890.88;4978147;28;45298;-66
2021/12/21 12:09:41;;;;;;;;;22.67;22.67;;;;;4.56;59.35;101833.25;4978166;28;45194;-65
2021/12/21 12:12:17;;;;;;;;;27.67;25.00;;;;;4.81;58.51;101858.34;4976936;28;45403;-66
2021/12/21 12:14:45;;;;;;;;;30.00;25.00;;;;;4.91;58.25;101878.00;4992983;28;45226;-66
2021/12/21 12:17:18;;;;;;;;;28.00;27.00;;;;;4.71;59.19;101828.13;4978009;28;45448;-65
2021/12/21 12:20:04;;;;;;;;;30.00;30.00;;;;;5.03;58.44;101877.38;5004773;28;45522;-67
2021/12/21 12:22:40;;;;;;;;;29.33;26.67;;;;;5.08;59.00;101864.78;4997308;28;45863;-66
2021/12/21 12:25:15;;;;;;;;;35.67;30.00;;;;;5.13;58.62;101867.19;4995659;28;45257;-66